Latest Weather Observations for Legendre Island

IDW60801

Issued at 2:02 pm WST Thursday 28 May 2015 (issued every 30 minutes, with the page automatically refreshed every 10 minutes)

About weather observations | Map of weather stations | Latest weather observations for WA | Other Formats
Station Details ID: 004095 Name: LEGENDRE ISLAND Lat: -20.36 Lon: 116.84 Height: 29.0 m
Data from the previous 72 hours. | See also: Recent months for locations in Western Australia
Date/Time
WST
Temp
°C
App
Temp
°C
Dew
Point
Rel
Hum
%
Delta-T
°C
Wind Press
QNH
hPa
Press
MSL
hPa
Rain
since 9 am
mm
Dir
 
Spd
km/h
Gust
km/h
Spd
kts
Gust
kts
28/02:00pm 21.4 21.9 21.2 99 0.1 SE 20 26 11 14 1014.0 1013.9 -
28/01:30pm 22.0 22.4 21.7 98 0.2 ESE 22 28 12 15 1014.0 1013.9 -
28/01:00pm 22.2 22.4 22.0 99 0.1 ESE 24 28 13 15 1014.0 1013.9 -
28/12:30pm 21.6 21.9 21.6 100 0.0 SE 22 28 12 15 1014.6 1014.5 -
28/12:00pm 21.4 21.3 21.4 100 0.0 SE 24 32 13 17 1014.7 1014.6 -
28/11:30am 21.2 20.6 21.2 100 0.0 SE 26 35 14 19 1015.0 1014.9 -
28/11:00am 22.4 24.0 22.1 98 0.2 ESE 17 28 9 15 1015.1 1015.0 -
28/10:30am 22.7 25.7 22.7 100 0.0 ENE 11 15 6 8 1015.5 1015.3 -
28/10:00am 22.9 23.6 22.9 100 0.0 NNE 24 30 13 16 1015.8 1015.6 -
28/09:30am 22.3 21.1 22.3 100 0.0 NE 32 35 17 19 1015.6 1015.4 -
28/09:00am 22.6 24.0 22.6 100 0.0 ENE 19 22 10 12 1015.9 1015.7 -
28/08:30am 22.4 23.5 22.4 100 0.0 NE 20 24 11 13 1015.3 1015.2 -
28/08:00am 22.1 21.9 22.1 100 0.0 NE 26 28 14 15 1015.2 1015.1 -
28/07:30am 22.0 21.0 22.0 100 0.0 NE 30 32 16 17 1014.7 1014.6 -
28/07:00am 21.8 20.3 21.8 100 0.0 ENE 32 37 17 20 1014.6 1014.5 -
28/06:30am 21.8 20.7 21.8 100 0.0 ENE 30 35 16 19 1014.4 1014.3 -
28/06:00am 21.6 20.0 21.6 100 0.0 ENE 32 37 17 20 1014.1 1014.0 -
28/05:30am 21.4 19.2 21.4 100 0.0 ENE 35 41 19 22 1013.7 1013.6 -
28/05:00am 21.4 19.5 21.4 100 0.0 ENE 33 37 18 20 1013.6 1013.5 -
28/04:30am 21.5 19.9 21.5 100 0.0 ENE 32 35 17 19 1013.9 1013.8 -
28/04:00am 21.5 19.3 21.5 100 0.0 NE 35 41 19 22 1013.6 1013.5 -
28/03:30am 21.4 19.5 21.4 100 0.0 ENE 33 39 18 21 1013.6 1013.5 -
28/03:00am 21.2 18.5 21.2 100 0.0 ENE 37 43 20 23 1013.3 1013.2 -
28/02:30am 21.2 18.9 21.2 100 0.0 ENE 35 41 19 22 1013.6 1013.5 -
28/02:00am 21.0 18.2 21.0 100 0.0 ENE 37 43 20 23 1013.8 1013.7 -
28/01:30am 21.1 18.7 21.1 100 0.0 ENE 35 41 19 22 1014.0 1013.9 -
28/01:00am 21.0 20.3 21.0 100 0.0 E 26 30 14 16 1014.5 1014.4 -
28/12:30am 20.9 19.7 20.9 100 0.0 E 28 32 15 17 1014.7 1014.6 -
28/12:00am 20.6 19.3 20.6 100 0.0 E 28 33 15 18 1014.8 1014.7 -
 
Date/Time
WST
Temp
°C
App
Temp
°C
Dew
Point
Rel
Hum
%
Delta-T
°C
Wind Press
QNH
hPa
Press
MSL
hPa
Rain
since 9 am
mm
Dir
 
Spd
km/h
Gust
km/h
Spd
kts
Gust
kts
27/11:30pm 20.4 18.0 20.4 100 0.0 ESE 33 37 18 20 1014.4 1014.3 -
27/11:00pm 20.6 18.0 20.6 100 0.0 ESE 35 43 19 23 1014.8 1014.7 -
27/10:30pm 20.3 18.1 20.3 100 0.0 E 32 37 17 20 1015.3 1015.2 -
27/10:00pm 20.6 18.3 20.6 100 0.0 E 33 37 18 20 1015.1 1015.0 -
27/09:30pm 20.5 17.8 20.5 100 0.0 E 35 43 19 23 1015.1 1015.0 -
27/09:00pm 20.6 18.3 20.6 100 0.0 ESE 33 37 18 20 1015.5 1015.3 -
27/08:30pm 20.6 18.5 20.6 100 0.0 ESE 32 39 17 21 1015.2 1015.1 -
27/08:00pm 20.7 18.5 20.7 100 0.0 ESE 33 37 18 20 1015.0 1014.9 -
27/07:30pm 20.4 19.4 20.4 100 0.0 ESE 26 33 14 18 1015.1 1015.0 -
27/07:00pm 20.0 18.4 20.0 100 0.0 ESE 28 33 15 18 1015.1 1015.0 -
27/06:30pm 19.7 19.1 19.7 100 0.0 SE 22 30 12 16 1014.4 1014.3 -
27/06:00pm 19.6 19.5 19.6 100 0.0 SE 19 22 10 12 1014.6 1014.5 -
27/05:30pm 19.7 20.0 19.7 100 0.0 SE 17 20 9 11 1014.5 1014.4 -
27/05:00pm 19.8 19.2 19.8 100 0.0 SE 22 33 12 18 1013.6 1013.5 -
27/04:30pm 20.0 18.0 20.0 100 0.0 SE 30 41 16 22 1012.4 1012.3 -
27/04:00pm 20.5 17.8 20.5 100 0.0 ESE 35 41 19 22 1012.3 1012.2 -
27/03:30pm 21.0 18.9 21.0 100 0.0 ESE 33 39 18 21 1012.8 1012.7 -
27/03:00pm 21.2 19.2 21.2 100 0.0 ESE 33 37 18 20 1012.6 1012.5 -
27/02:30pm 21.1 19.3 21.1 100 0.0 ESE 32 37 17 20 1012.3 1012.2 -
27/02:00pm 20.7 18.5 20.7 100 0.0 ESE 33 37 18 20 1012.7 1012.6 -
27/01:30pm 20.7 18.7 20.7 100 0.0 ESE 32 35 17 19 1012.6 1012.5 -
27/01:00pm 20.9 19.0 20.9 100 0.0 ESE 32 37 17 20 1013.1 1013.0 -
27/12:30pm 20.2 17.9 20.2 100 0.0 ESE 32 37 17 20 1013.5 1013.4 -
27/12:00pm 19.6 17.8 19.6 100 0.0 SSE 28 35 15 19 1014.0 1013.9 -
27/11:30am 19.8 17.7 19.8 100 0.0 SE 30 39 16 21 1014.2 1014.1 -
27/11:00am 20.1 19.7 20.1 100 0.0 SE 22 30 12 16 1014.9 1014.8 -
27/10:30am 19.8 18.9 19.8 100 0.0 SE 24 30 13 16 1014.9 1014.8 -
27/10:00am 19.9 18.2 19.9 100 0.0 ESE 28 33 15 18 1016.1 1015.9 -
27/09:30am 19.7 17.6 19.7 100 0.0 SE 30 39 16 21 1015.2 1015.1 -
27/09:00am 19.6 18.2 19.6 100 0.0 SE 26 35 14 19 1016.0 1015.8 -
27/08:30am 19.4 17.5 19.4 100 0.0 SE 28 35 15 19 1015.8 1015.6 -
27/08:00am 19.9 17.9 19.9 100 0.0 ESE 30 37 16 20 1015.7 1015.5 -
27/07:30am 19.8 18.1 19.8 100 0.0 SSE 28 39 15 21 1015.1 1015.0 -
27/07:00am 20.2 19.1 20.2 100 0.0 ESE 26 32 14 17 1014.6 1014.5 -
27/06:30am 20.2 19.0 20.0 99 0.1 SE 26 33 14 18 1014.9 1014.8 -
27/06:00am 21.0 19.3 20.5 97 0.3 ESE 30 35 16 19 1014.6 1014.5 -
27/05:30am 21.3 19.3 19.9 92 0.9 ESE 30 35 16 19 1014.5 1014.4 -
27/05:00am 21.9 20.0 19.3 85 1.7 ESE 28 33 15 18 1014.0 1013.9 -
27/04:30am 21.9 20.5 18.7 82 2.0 ESE 24 30 13 16 1014.3 1014.2 -
27/04:00am 22.5 20.0 18.9 80 2.3 ESE 30 35 16 19 1014.3 1014.2 -
27/03:30am 22.7 19.9 19.1 80 2.3 ESE 32 35 17 19 1013.9 1013.8 -
27/03:00am 22.6 20.2 19.0 80 2.3 E 30 33 16 18 1014.4 1014.3 -
27/02:30am 22.6 19.6 18.6 78 2.5 ESE 32 35 17 19 1014.4 1014.3 -
27/02:00am 22.7 19.9 18.3 76 2.8 ESE 30 33 16 18 1015.3 1015.2 -
27/01:30am 22.8 20.3 18.8 78 2.5 ESE 30 35 16 19 1015.2 1015.1 -
27/01:00am 22.8 19.9 18.8 78 2.5 ESE 32 35 17 19 1015.3 1015.2 -
27/12:30am 22.8 20.1 19.2 80 2.3 ESE 32 37 17 20 1015.7 1015.5 -
27/12:00am 22.8 21.6 20.0 84 1.8 ESE 26 30 14 16 1016.0 1015.8 -
 
Date/Time
WST
Temp
°C
App
Temp
°C
Dew
Point
Rel
Hum
%
Delta-T
°C
Wind Press
QNH
hPa
Press
MSL
hPa
Rain
since 9 am
mm
Dir
 
Spd
km/h
Gust
km/h
Spd
kts
Gust
kts
26/11:30pm 22.4 22.4 20.9 91 1.0 ESE 22 26 12 14 1016.2 1016.0 -
26/11:00pm 23.1 23.9 22.4 96 0.5 ESE 22 32 12 17 1016.5 1016.3 -
26/10:30pm 23.7 23.5 22.7 94 0.7 E 28 32 15 17 1016.5 1016.3 -
26/10:00pm 23.8 23.5 22.6 93 0.8 E 28 32 15 17 1016.8 1016.6 -
26/09:30pm 23.9 24.2 22.9 94 0.7 E 26 30 14 16 1016.9 1016.7 -
26/09:00pm 23.6 24.0 22.4 93 0.8 E 24 28 13 15 1016.8 1016.6 -
26/08:30pm 23.5 23.9 22.5 94 0.7 E 24 28 13 15 1016.8 1016.6 -
26/08:00pm 23.5 23.8 22.3 93 0.8 E 24 28 13 15 1016.6 1016.4 -
26/07:30pm 23.5 24.0 21.9 91 1.1 E 22 24 12 13 1016.5 1016.3 -
26/07:00pm 23.3 23.4 21.2 88 1.4 E 22 24 12 13 1016.0 1015.8 -
26/06:30pm 23.2 23.1 20.7 86 1.6 E 22 26 12 14 1015.7 1015.5 -
26/06:00pm 23.0 22.7 20.3 85 1.7 E 22 24 12 13 1015.5 1015.3 -
26/05:30pm 23.1 22.7 20.2 84 1.9 E 22 26 12 14 1015.2 1015.1 -
26/05:00pm 23.3 22.7 19.7 80 2.3 E 22 26 12 14 1015.1 1015.0 -
26/04:30pm 23.6 22.4 19.3 77 2.7 E 24 26 13 14 1014.9 1014.8 -
26/04:00pm 23.8 22.6 19.3 76 2.9 E 24 28 13 15 1014.8 1014.7 -
26/03:30pm 24.1 22.5 19.2 74 3.1 E 26 30 14 16 1014.8 1014.7 -
26/03:00pm 24.0 22.1 18.6 72 3.4 E 26 28 14 15 1014.8 1014.7 -
26/02:30pm 24.3 22.3 18.2 68 3.8 E 26 32 14 17 1014.8 1014.7 -
26/02:00pm 24.2 22.0 17.9 68 3.9 E 26 32 14 17 1015.0 1014.9 -
26/01:30pm 24.3 22.6 18.0 68 4.0 ESE 24 30 13 16 1015.3 1015.2 -
26/01:00pm 24.3 21.8 18.0 68 4.0 E 28 32 15 17 1015.5 1015.3 -
26/12:30pm 24.2 21.6 17.9 68 3.9 E 28 33 15 18 1016.0 1015.8 -
26/12:00pm 23.9 20.6 17.9 69 3.8 E 32 37 17 20 1016.1 1015.9 -
26/11:30am 23.4 19.3 17.4 69 3.7 E 35 37 19 20 1016.4 1016.2 -
26/11:00am 23.1 18.4 16.9 68 3.8 E 37 41 20 22 1016.6 1016.4 -
26/10:30am 23.0 18.4 17.2 70 3.6 E 37 43 20 23 1016.8 1016.6 -
26/10:00am 22.9 18.3 17.1 70 3.6 ESE 37 41 20 22 1017.2 1017.0 -
26/09:30am 22.6 18.0 17.1 71 3.4 ESE 37 41 20 22 1017.2 1017.0 -
26/09:00am 22.1 18.3 17.2 74 3.0 ESE 33 41 18 22 1017.4 1017.2 -
26/08:30am 21.1 16.8 16.9 77 2.6 E 35 41 19 22 1016.9 1016.7 -
26/08:00am 21.0 16.6 16.6 76 2.7 E 35 41 19 22 1016.7 1016.5 -
26/07:30am 20.8 16.0 16.6 77 2.5 ESE 37 43 20 23 1016.4 1016.2 -
26/07:00am 20.6 15.5 16.8 79 2.3 E 39 44 21 24 1016.0 1015.8 -
26/06:30am 20.3 15.6 16.9 81 2.1 ESE 37 43 20 23 1016.0 1015.8 -
26/06:00am 20.5 16.0 17.3 82 2.0 ESE 37 44 20 24 1015.7 1015.5 -
26/05:30am 20.1 16.3 17.3 84 1.7 ESE 33 44 18 24 1015.3 1015.2 -
26/05:00am 20.4 15.8 17.2 82 2.0 ESE 37 43 20 23 1015.6 1015.4 -
26/04:30am 20.5 16.1 17.5 83 1.8 ESE 37 43 20 23 1015.3 1015.2 -
26/04:00am 20.5 15.6 17.3 82 2.0 ESE 39 44 21 24 1015.1 1015.0 -
26/03:30am 20.6 15.7 17.2 81 2.1 ESE 39 46 21 25 1015.1 1015.0 -
26/03:00am 20.6 16.7 17.8 84 1.7 ESE 35 43 19 23 1015.2 1015.1 -
26/02:30am 20.6 16.7 17.8 84 1.7 ESE 35 43 19 23 1015.2 1015.1 -
26/02:00am 20.8 16.7 18.2 85 1.6 ESE 37 43 20 23 1015.8 1015.6 -
26/01:30am 20.7 16.1 18.1 85 1.6 E 39 46 21 25 1015.8 1015.6 -
26/01:00am 20.6 16.1 18.2 86 1.5 ESE 39 44 21 24 1015.9 1015.7 -
26/12:30am 20.2 17.0 18.1 88 1.3 ESE 32 37 17 20 1016.3 1016.1 -
26/12:00am 20.1 17.7 18.2 89 1.2 ESE 28 37 15 20 1016.7 1016.5 -
 
Date/Time
WST
Temp
°C
App
Temp
°C
Dew
Point
Rel
Hum
%
Delta-T
°C
Wind Press
QNH
hPa
Press
MSL
hPa
Rain
since 9 am
mm
Dir
 
Spd
km/h
Gust
km/h
Spd
kts
Gust
kts
25/11:30pm 20.2 17.4 18.1 88 1.3 ESE 30 39 16 21 1017.0 1016.8 -
25/11:00pm 20.7 17.1 18.6 88 1.3 ESE 35 44 19 24 1016.7 1016.5 -
25/10:30pm 20.5 16.1 18.4 88 1.3 ESE 39 44 21 24 1016.7 1016.5 -
25/10:00pm 20.6 15.9 18.7 89 1.2 ESE 41 46 22 25 1016.5 1016.3 -
25/09:30pm 20.4 16.7 19.2 93 0.8 ESE 37 46 20 25 1016.6 1016.4 -
25/09:00pm 19.8 17.4 19.1 96 0.4 ESE 30 39 16 21 1016.8 1016.6 -
25/08:30pm 19.7 16.3 19.0 96 0.4 ESE 35 41 19 22 1016.6 1016.4 -
25/08:00pm 19.6 16.7 19.3 98 0.2 ESE 33 39 18 21 1016.5 1016.3 -
25/07:30pm 19.6 16.7 18.9 96 0.4 ESE 32 43 17 23 1016.1 1015.9 -
25/07:00pm 20.2 16.4 18.1 88 1.3 ESE 35 48 19 26 1015.6 1015.4 -
25/06:30pm 20.6 16.0 18.0 85 1.6 E 39 46 21 25 1015.1 1015.0 -
25/06:00pm 20.6 16.1 18.2 86 1.5 E 39 44 21 24 1014.9 1014.8 -
25/05:30pm 20.4 15.3 17.8 85 1.6 ESE 41 46 22 25 1014.6 1014.5 -
25/05:00pm 20.4 15.4 18.0 86 1.5 ESE 41 48 22 26 1014.5 1014.4 -
25/04:30pm 20.6 15.3 18.2 86 1.5 E 43 50 23 27 1014.3 1014.2 -
25/04:00pm 20.4 15.3 18.5 89 1.2 E 43 50 23 27 1014.3 1014.2 -
25/03:30pm 20.2 15.9 19.5 96 0.4 ESE 41 50 22 27 1014.2 1014.1 -
25/03:00pm 20.2 16.1 20.0 99 0.1 ESE 41 46 22 25 1014.1 1014.0 -
25/02:30pm 19.8 15.6 19.8 100 0.0 ESE 41 50 22 27 1014.0 1013.9 -

Other Formats:

Comma delimited format used in spreadsheet applications
http://www.bom.gov.au/fwo/IDW60801/IDW60801.94307.axf

JavaScript Object Notation format (JSON) in row-major order
http://www.bom.gov.au/fwo/IDW60801/IDW60801.94307.json